Time;durP1;ratioP1;P1;durP2;ratioP2;P2;SDS_P1;SDS_P2;PMS_P1;PMS_P2;Temp;Humidity;BMP_temperature;BMP_pressure;BME280_temperature;BME280_humidity;BME280_pressure;Samples;Min_cycle;Max_cycle;Signal;HPM_P1;HPM_P2
2022/06/14 00:03:03;;;;;;;62.63;50.33;;;21.70;55.20;;;;;;4925929;28;90919;-56
2022/06/14 00:05:29;;;;;;;63.08;50.20;;;21.70;55.30;;;;;;4914889;28;91201;-57
2022/06/14 00:07:55;;;;;;;62.85;50.08;;;21.70;55.20;;;;;;4924692;28;90328;-59
2022/06/14 00:10:21;;;;;;;62.03;50.05;;;21.60;55.20;;;;;;4914206;28;97229;-60
2022/06/14 00:12:46;;;;;;;62.05;50.03;;;21.60;55.30;;;;;;4923959;28;90161;-59
2022/06/14 00:15:12;;;;;;;62.03;50.00;;;21.60;55.30;;;;;;4922108;28;90564;-56
2022/06/14 00:17:38;;;;;;;63.42;50.50;;;21.60;55.40;;;;;;4923708;28;90866;-55
2022/06/14 00:20:04;;;;;;;63.05;50.22;;;21.60;55.60;;;;;;4921618;28;97138;-59
2022/06/14 00:22:33;;;;;;;62.33;50.22;;;21.60;55.50;;;;;;4923815;28;91503;-54
2022/06/14 00:24:59;;;;;;;64.32;50.13;;;21.50;56.20;;;;;;4920306;28;96628;-59
2022/06/14 00:27:24;;;;;;;62.83;50.15;;;21.50;55.50;;;;;;4917413;28;91161;-59
2022/06/14 00:29:50;;;;;;;62.65;50.15;;;21.50;55.50;;;;;;4924400;28;90493;-58
2022/06/14 00:32:15;;;;;;;62.58;49.95;;;21.50;55.50;;;;;;4907786;28;90579;-57
2022/06/14 00:34:41;;;;;;;62.75;50.05;;;21.50;55.50;;;;;;4927505;28;89827;-59
2022/06/14 00:37:17;;;;;;;62.90;50.20;;;21.50;55.60;;;;;;4929364;28;97203;-59
2022/06/14 00:39:44;;;;;;;62.53;49.80;;;21.50;55.60;;;;;;4929478;28;89463;-59
2022/06/14 00:42:19;;;;;;;62.25;49.80;;;21.40;55.70;;;;;;4920730;28;91636;-59
2022/06/14 00:45:02;;;;;;;62.40;49.75;;;21.40;55.80;;;;;;4924406;28;90591;-59
2022/06/14 00:47:29;;;;;;;62.03;50.03;;;21.40;55.80;;;;;;4926735;28;90591;-58
2022/06/14 00:49:59;;;;;;;62.80;50.05;;;21.40;55.80;;;;;;4930820;28;90562;-59
2022/06/14 00:52:33;;;;;;;61.78;49.75;;;21.40;55.70;;;;;;4927747;28;91226;-55
2022/06/14 00:55:07;;;;;;;61.67;49.63;;;21.40;55.80;;;;;;4924613;28;95591;-54
2022/06/14 00:57:41;;;;;;;62.90;50.00;;;21.40;55.80;;;;;;4932048;28;89945;-57
2022/06/14 01:00:11;;;;;;;61.88;49.80;;;21.40;55.80;;;;;;4920809;28;91979;-59
2022/06/14 01:02:58;;;;;;;62.70;49.95;;;21.40;55.80;;;;;;4929866;28;91500;-60
2022/06/14 01:06:05;;;;;;;62.70;49.70;;;21.40;55.80;;;;;;4919298;28;89350;-57
2022/06/14 01:08:52;;;;;;;62.40;50.08;;;21.40;55.80;;;;;;4924948;28;90267;-57
2022/06/14 01:11:29;;;;;;;61.75;49.70;;;21.30;55.90;;;;;;4921395;28;90438;-58
2022/06/14 01:13:55;;;;;;;63.10;50.10;;;21.30;55.90;;;;;;4931479;28;92433;-57
2022/06/14 01:16:20;;;;;;;62.65;49.55;;;21.40;55.90;;;;;;4926904;28;90130;-57
2022/06/14 01:18:46;;;;;;;63.42;50.05;;;21.30;55.70;;;;;;4927036;28;96459;-54
2022/06/14 01:21:12;;;;;;;61.58;49.65;;;21.30;55.90;;;;;;4921167;28;90424;-55
2022/06/14 01:23:38;;;;;;;61.90;49.88;;;21.40;56.00;;;;;;4926152;28;98529;-56
2022/06/14 01:26:24;;;;;;;62.88;49.83;;;21.30;55.80;;;;;;4924112;28;95804;-57
2022/06/14 01:28:56;;;;;;;62.10;49.92;;;21.30;55.90;;;;;;4929022;28;90975;-60
2022/06/14 01:31:23;;;;;;;62.05;49.95;;;21.20;55.90;;;;;;4927958;28;91449;-56
2022/06/14 01:33:57;;;;;;;63.47;49.83;;;21.30;56.00;;;;;;4929839;28;90796;-60
2022/06/14 01:36:29;;;;;;;62.00;49.53;;;21.20;56.00;;;;;;4922118;28;90036;-56
2022/06/14 01:38:59;;;;;;;62.45;49.63;;;21.20;56.00;;;;;;4919393;28;92658;-60
2022/06/14 01:41:25;;;;;;;61.67;49.63;;;21.20;56.00;;;;;;4912504;28;90509;-57
2022/06/14 01:44:09;;;;;;;62.00;49.92;;;21.20;56.00;;;;;;4925842;28;91152;-57
2022/06/14 01:47:03;;;;;;;62.20;49.50;;;21.20;56.00;;;;;;4920165;28;90796;-55
2022/06/14 01:52:46;;;;;;;61.25;49.67;;;21.10;56.70;;;;;;4920913;28;89825;-56
2022/06/14 01:55:41;;;;;;;60.92;49.50;;;21.20;56.10;;;;;;4926985;28;90281;-60
2022/06/14 01:58:22;;;;;;;61.75;49.58;;;21.10;56.10;;;;;;4924411;28;90951;-60
2022/06/14 02:01:11;;;;;;;61.40;49.60;;;21.10;56.10;;;;;;4921851;28;89878;-57
2022/06/14 02:07:06;;;;;;;61.08;49.47;;;21.10;56.20;;;;;;4916265;28;93928;-59
2022/06/14 02:09:46;;;;;;;61.80;49.58;;;21.10;56.10;;;;;;4928446;28;96238;-60
2022/06/14 02:12:23;;;;;;;61.47;49.57;;;21.10;56.20;;;;;;4927428;28;90437;-57
2022/06/14 02:14:57;;;;;;;61.78;49.58;;;21.10;56.20;;;;;;4924943;28;93107;-59
2022/06/14 02:17:29;;;;;;;61.65;49.80;;;21.00;56.20;;;;;;4924822;28;91516;-58
2022/06/14 02:20:04;;;;;;;62.08;49.90;;;21.00;56.30;;;;;;4943408;28;91018;-58
2022/06/14 02:22:39;;;;;;;62.78;49.72;;;21.00;56.20;;;;;;4920294;28;90797;-58
2022/06/14 02:25:27;;;;;;;63.45;50.03;;;21.00;56.20;;;;;;4924752;28;89210;-59
2022/06/14 02:28:03;;;;;;;62.20;49.70;;;21.00;56.30;;;;;;4910918;28;92298;-59
2022/06/14 02:30:37;;;;;;;62.08;49.55;;;21.00;56.30;;;;;;4915392;28;96815;-55
2022/06/14 02:33:23;;;;;;;61.75;49.83;;;21.00;56.30;;;;;;4914578;28;92299;-58
2022/06/14 02:36:01;;;;;;;61.35;49.45;;;21.00;56.30;;;;;;4921563;28;90493;-59
2022/06/14 02:38:36;;;;;;;60.85;49.45;;;21.00;56.30;;;;;;4920622;28;90525;-60
2022/06/14 02:41:13;;;;;;;61.13;49.60;;;20.90;56.40;;;;;;4927253;28;95279;-58
2022/06/14 02:43:44;;;;;;;61.50;49.75;;;20.90;56.40;;;;;;4927322;28;91507;-57
2022/06/14 02:46:19;;;;;;;61.67;49.67;;;20.90;56.40;;;;;;4917471;28;89988;-60
2022/06/14 02:48:58;;;;;;;63.20;49.55;;;20.90;56.40;;;;;;4931678;28;90127;-60
2022/06/14 02:51:33;;;;;;;61.40;49.50;;;20.90;56.50;;;;;;4926612;28;91142;-59
2022/06/14 02:54:08;;;;;;;61.72;49.38;;;20.80;56.50;;;;;;4925273;28;89982;-60
2022/06/14 02:57:06;;;;;;;61.75;49.50;;;20.80;56.50;;;;;;4923724;28;90798;-57
2022/06/14 03:00:04;;;;;;;61.10;49.35;;;20.90;56.50;;;;;;4918347;28;92233;-56
2022/06/14 03:02:43;;;;;;;61.30;49.28;;;20.80;56.40;;;;;;4931254;28;91004;-56
2022/06/14 03:05:33;;;;;;;61.08;49.38;;;20.80;56.50;;;;;;4935198;28;89837;-58
2022/06/14 03:08:16;;;;;;;61.08;49.60;;;20.80;56.50;;;;;;4924919;28;89808;-59
2022/06/14 03:11:07;;;;;;;60.58;49.33;;;20.80;56.50;;;;;;4925767;28;90023;-57
2022/06/14 03:14:02;;;;;;;60.35;49.17;;;20.80;56.50;;;;;;4929164;28;89929;-60
2022/06/14 03:16:45;;;;;;;60.42;49.47;;;20.80;57.20;;;;;;4924345;28;90272;-56
2022/06/14 03:19:20;;;;;;;61.50;49.45;;;20.80;56.70;;;;;;4926859;28;89408;-59
2022/06/14 03:21:46;;;;;;;62.22;49.40;;;20.80;56.70;;;;;;4923717;28;90827;-58
2022/06/14 03:24:39;;;;;;;61.05;49.58;;;20.80;56.60;;;;;;4930631;28;90803;-59
2022/06/14 03:27:32;;;;;;;61.78;49.50;;;20.80;56.50;;;;;;4918434;28;92624;-58
2022/06/14 03:30:30;;;;;;;60.38;49.20;;;20.70;56.50;;;;;;4927045;28;90910;-58
2022/06/14 03:33:13;;;;;;;61.08;49.45;;;20.70;56.50;;;;;;4925198;28;90423;-57
2022/06/14 03:35:47;;;;;;;61.33;49.35;;;20.70;56.50;;;;;;4930629;28;91506;-58
2022/06/14 03:38:40;;;;;;;61.65;49.50;;;20.70;56.70;;;;;;4925501;28;90669;-60
2022/06/14 03:41:08;;;;;;;60.97;49.53;;;20.70;56.60;;;;;;4930925;28;90112;-55
2022/06/14 03:43:36;;;;;;;60.97;49.40;;;20.70;56.70;;;;;;4928585;28;93870;-57
2022/06/14 03:46:28;;;;;;;60.60;49.30;;;20.70;56.70;;;;;;4925295;28;89708;-55
2022/06/14 03:48:59;;;;;;;61.38;49.53;;;20.70;56.70;;;;;;4929176;28;91098;-54
2022/06/14 03:51:54;;;;;;;60.63;49.30;;;20.70;56.60;;;;;;4928264;28;89904;-58
2022/06/14 03:54:29;;;;;;;61.40;49.47;;;20.60;56.60;;;;;;4926861;28;91379;-58
2022/06/14 03:57:25;;;;;;;61.63;49.38;;;20.60;56.70;;;;;;4925827;28;91186;-57
2022/06/14 04:00:18;;;;;;;60.42;49.55;;;20.60;56.80;;;;;;4925828;28;90038;-57
2022/06/14 04:02:53;;;;;;;61.40;49.50;;;20.60;56.70;;;;;;4919339;28;98958;-58
2022/06/14 04:05:38;;;;;;;61.67;49.28;;;20.60;56.60;;;;;;4919305;28;91673;-56
2022/06/14 04:08:22;;;;;;;60.75;49.35;;;20.60;57.10;;;;;;4916646;28;91627;-56
2022/06/14 04:11:17;;;;;;;60.95;49.15;;;20.50;57.20;;;;;;4927804;28;90894;-52
2022/06/14 04:14:11;;;;;;;60.80;49.08;;;20.50;57.30;;;;;;4932350;28;89254;-59
2022/06/14 04:16:51;;;;;;;61.28;49.45;;;20.50;57.30;;;;;;4899760;28;98439;-54
2022/06/14 04:20:01;;;;;;;62.28;49.38;;;20.50;57.50;;;;;;4935419;28;90206;-59
2022/06/14 04:22:48;;;;;;;60.92;49.38;;;20.40;57.50;;;;;;4904877;28;91596;-58
2022/06/14 04:25:35;;;;;;;61.70;49.65;;;20.40;57.60;;;;;;4935095;28;91212;-55
2022/06/14 04:28:35;;;;;;;62.13;49.33;;;20.30;57.70;;;;;;4918748;28;90680;-58
2022/06/14 04:31:35;;;;;;;62.58;49.35;;;20.30;57.70;;;;;;4928218;28;90206;-58
2022/06/14 04:34:21;;;;;;;62.05;49.28;;;20.30;57.90;;;;;;4934916;28;89938;-57
2022/06/14 04:37:01;;;;;;;61.38;49.42;;;20.20;57.90;;;;;;4930711;28;90340;-57
2022/06/14 04:39:36;;;;;;;61.22;49.30;;;20.10;58.10;;;;;;4933298;28;90316;-58
2022/06/14 04:42:12;;;;;;;61.03;49.65;;;20.10;58.30;;;;;;4934674;28;90183;-57
2022/06/14 04:44:47;;;;;;;61.28;49.33;;;20.00;58.50;;;;;;4924337;28;91568;-56
2022/06/14 04:47:16;;;;;;;61.17;49.42;;;20.00;58.60;;;;;;4922174;28;89942;-56
2022/06/14 04:49:50;;;;;;;61.20;49.25;;;20.10;58.60;;;;;;4922899;28;91564;-59
2022/06/14 04:52:21;;;;;;;61.58;49.15;;;20.10;58.60;;;;;;4919455;28;91441;-55
2022/06/14 04:54:58;;;;;;;61.60;49.58;;;20.10;58.60;;;;;;4928117;28;90173;-59
2022/06/14 04:57:35;;;;;;;60.63;49.50;;;20.10;58.50;;;;;;4936859;28;89819;-59
2022/06/14 05:00:01;;;;;;;60.33;49.13;;;20.10;58.60;;;;;;4937845;28;89488;-57
2022/06/14 05:02:32;;;;;;;60.97;49.45;;;20.10;58.40;;;;;;4932594;28;90254;-56
2022/06/14 05:05:04;;;;;;;61.78;49.33;;;20.10;58.40;;;;;;4937973;28;92071;-56
2022/06/14 05:07:41;;;;;;;61.05;49.42;;;20.20;58.00;;;;;;4928926;28;89432;-58
2022/06/14 05:10:18;;;;;;;61.67;49.25;;;20.10;57.90;;;;;;4923229;28;92486;-53
2022/06/14 05:12:49;;;;;;;60.80;49.17;;;20.10;57.40;;;;;;4918363;28;90239;-56
2022/06/14 05:15:19;;;;;;;62.75;49.92;;;20.20;57.40;;;;;;4927517;28;91832;-57
2022/06/14 05:18:12;;;;;;;62.55;49.63;;;20.30;57.50;;;;;;4938230;28;90527;-58
2022/06/14 05:20:47;;;;;;;64.03;49.83;;;20.50;57.50;;;;;;4934247;28;89745;-55
2022/06/14 05:23:22;;;;;;;64.25;49.90;;;20.70;56.60;;;;;;4931312;28;90954;-57
2022/06/14 05:26:09;;;;;;;63.83;50.00;;;20.70;56.40;;;;;;4933445;28;90043;-56
2022/06/14 05:28:51;;;;;;;63.58;50.03;;;20.80;56.40;;;;;;4933966;28;90391;-55
2022/06/14 05:31:28;;;;;;;64.00;50.35;;;21.00;56.10;;;;;;4933691;28;89520;-56
2022/06/14 05:34:12;;;;;;;66.05;51.22;;;21.10;55.90;;;;;;4924588;28;91926;-57
2022/06/14 05:37:00;;;;;;;65.43;51.08;;;21.20;56.80;;;;;;4933188;28;89536;-60
2022/06/14 05:39:44;;;;;;;65.70;50.58;;;21.10;56.80;;;;;;4930732;28;91714;-58
2022/06/14 05:42:25;;;;;;;65.68;50.55;;;21.00;57.10;;;;;;4930993;28;91587;-56
2022/06/14 05:44:57;;;;;;;68.65;51.15;;;21.00;57.20;;;;;;4924694;28;91954;-55
2022/06/14 05:47:37;;;;;;;67.72;50.33;;;21.10;57.10;;;;;;4931409;28;90573;-56
2022/06/14 05:50:13;;;;;;;66.25;50.55;;;21.30;56.60;;;;;;4937190;28;89514;-58
2022/06/14 05:52:46;;;;;;;64.57;51.00;;;21.30;56.30;;;;;;4937948;28;90262;-60
2022/06/14 05:55:19;;;;;;;67.63;51.25;;;21.30;56.50;;;;;;4934151;28;90126;-59
2022/06/14 05:57:51;;;;;;;66.70;50.95;;;21.40;56.40;;;;;;4932304;28;90313;-53
2022/06/14 06:00:23;;;;;;;67.55;50.97;;;21.40;56.30;;;;;;4928449;28;89313;-58
2022/06/14 06:03:07;;;;;;;68.60;51.38;;;21.30;56.20;;;;;;4919385;28;90547;-57
2022/06/14 06:05:40;;;;;;;65.07;51.13;;;21.40;56.90;;;;;;4931655;28;89982;-60
2022/06/14 06:08:35;;;;;;;72.70;51.15;;;21.30;56.30;;;;;;4925305;28;91386;-57
2022/06/14 06:11:29;;;;;;;66.32;50.95;;;21.30;56.50;;;;;;4928632;28;90005;-59
2022/06/14 06:14:18;;;;;;;65.15;50.55;;;21.30;56.30;;;;;;4934892;28;90645;-57
2022/06/14 06:17:02;;;;;;;65.97;51.10;;;21.30;56.20;;;;;;4921963;28;90217;-60
2022/06/14 06:19:47;;;;;;;65.97;51.08;;;21.30;56.10;;;;;;4928482;28;91269;-55
2022/06/14 06:22:22;;;;;;;66.53;50.70;;;21.40;56.00;;;;;;4923019;28;91814;-61
2022/06/14 06:24:55;;;;;;;66.93;50.78;;;21.40;56.20;;;;;;4933098;28;90033;-60
2022/06/14 06:27:38;;;;;;;69.20;50.53;;;21.30;56.20;;;;;;4921387;28;90447;-60
2022/06/14 06:30:12;;;;;;;68.63;50.75;;;21.40;56.20;;;;;;4926363;28;89750;-55
2022/06/14 06:32:39;;;;;;;65.20;50.63;;;21.40;56.20;;;;;;4923734;28;91704;-56
2022/06/14 06:35:06;;;;;;;70.03;51.10;;;21.40;56.00;;;;;;4932516;28;91438;-53
2022/06/14 06:37:37;;;;;;;67.45;50.75;;;21.40;55.80;;;;;;4918051;28;92071;-58
2022/06/14 06:40:02;;;;;;;63.30;50.55;;;21.40;55.80;;;;;;4933784;28;89927;-58
2022/06/14 06:42:37;;;;;;;66.78;50.75;;;21.40;55.80;;;;;;4929652;28;90054;-60
2022/06/14 06:45:12;;;;;;;65.78;50.45;;;21.40;55.90;;;;;;4930703;28;90297;-56
2022/06/14 06:47:49;;;;;;;64.95;50.28;;;21.40;55.80;;;;;;4930442;28;90754;-56
2022/06/14 06:50:18;;;;;;;64.57;50.47;;;21.40;55.90;;;;;;4930283;28;89993;-57
2022/06/14 06:52:59;;;;;;;66.97;50.95;;;21.40;55.90;;;;;;4933789;28;90406;-57
2022/06/14 06:55:32;;;;;;;64.37;50.83;;;21.40;55.90;;;;;;4928549;28;92525;-58
2022/06/14 06:58:01;;;;;;;63.58;50.47;;;21.40;56.00;;;;;;4927510;28;90294;-59
2022/06/14 07:00:28;;;;;;;65.65;50.85;;;21.40;56.00;;;;;;4923646;28;90560;-55
2022/06/14 07:03:01;;;;;;;65.00;50.70;;;21.50;56.00;;;;;;4927300;28;90034;-58
2022/06/14 07:05:27;;;;;;;64.97;50.47;;;21.50;56.00;;;;;;4933703;28;90041;-59
2022/06/14 07:07:56;;;;;;;65.30;50.58;;;21.50;56.00;;;;;;4924209;28;92720;-59
2022/06/14 07:10:43;;;;;;;67.55;50.47;;;21.50;55.90;;;;;;4936378;28;91192;-59
2022/06/14 07:13:24;;;;;;;65.97;50.28;;;21.50;55.80;;;;;;4926814;28;90261;-57
2022/06/14 07:16:13;;;;;;;64.97;50.42;;;21.50;55.90;;;;;;4929465;28;91455;-56
2022/06/14 07:18:52;;;;;;;64.30;50.25;;;21.50;56.00;;;;;;4926992;28;90047;-52
2022/06/14 07:21:23;;;;;;;63.65;50.78;;;21.60;56.10;;;;;;4923619;28;98860;-57
2022/06/14 07:24:15;;;;;;;69.43;50.90;;;21.60;56.10;;;;;;4924464;28;90583;-59
2022/06/14 07:26:55;;;;;;;63.45;50.50;;;21.70;55.90;;;;;;4922795;28;92140;-55
2022/06/14 07:29:33;;;;;;;66.55;51.03;;;21.70;55.90;;;;;;4922724;28;93862;-56
2022/06/14 07:32:25;;;;;;;63.95;50.95;;;21.70;56.30;;;;;;4928001;28;96630;-59
2022/06/14 07:34:51;;;;;;;66.60;50.95;;;21.70;56.40;;;;;;4918337;28;90605;-55
2022/06/14 07:37:17;;;;;;;65.75;50.95;;;21.70;56.20;;;;;;4928699;28;92528;-58
2022/06/14 07:40:03;;;;;;;63.90;50.70;;;21.80;56.00;;;;;;4926668;28;90232;-59
2022/06/14 07:42:35;;;;;;;65.80;51.15;;;21.80;55.70;;;;;;4919747;28;90359;-55
2022/06/14 07:45:38;;;;;;;64.95;50.65;;;21.80;55.60;;;;;;4932218;28;90844;-57
2022/06/14 07:48:23;;;;;;;65.55;50.35;;;21.90;55.60;;;;;;4932382;28;90479;-58
2022/06/14 07:50:56;;;;;;;65.70;51.20;;;21.90;55.60;;;;;;4936189;28;89884;-59
2022/06/14 07:53:30;;;;;;;66.55;50.85;;;21.90;55.60;;;;;;4935959;28;91038;-58
2022/06/14 07:56:05;;;;;;;64.78;50.58;;;21.90;55.60;;;;;;4935118;28;89583;-59
2022/06/14 07:58:42;;;;;;;66.05;50.72;;;21.80;55.60;;;;;;4932786;28;93725;-59
2022/06/14 08:01:19;;;;;;;65.28;50.53;;;21.90;55.60;;;;;;4929193;28;90274;-59
2022/06/14 08:04:06;;;;;;;65.35;50.90;;;21.90;55.60;;;;;;4925517;28;90827;-55
2022/06/14 08:06:41;;;;;;;64.70;50.70;;;21.90;55.60;;;;;;4932003;28;90862;-56
2022/06/14 08:09:21;;;;;;;64.57;50.70;;;22.00;55.70;;;;;;4923968;28;90263;-56
2022/06/14 08:11:52;;;;;;;66.82;51.00;;;22.00;55.70;;;;;;4936035;28;89981;-57
2022/06/14 08:14:42;;;;;;;66.40;50.80;;;22.00;55.40;;;;;;4921452;28;90265;-53
2022/06/14 08:17:10;;;;;;;65.22;50.92;;;22.00;55.30;;;;;;4926355;28;89674;-56
2022/06/14 08:19:52;;;;;;;68.38;50.63;;;22.10;55.20;;;;;;4923697;28;93836;-58
2022/06/14 08:22:29;;;;;;;65.30;50.45;;;22.00;54.90;;;;;;4932740;28;89926;-58
2022/06/14 08:25:00;;;;;;;66.25;50.85;;;22.10;54.80;;;;;;4922416;28;90717;-55
2022/06/14 08:27:35;;;;;;;65.13;50.55;;;22.10;54.50;;;;;;4935332;28;89894;-58
2022/06/14 08:30:06;;;;;;;64.60;50.65;;;22.10;54.40;;;;;;4932049;28;90786;-54
2022/06/14 08:32:44;;;;;;;67.18;50.92;;;22.10;54.10;;;;;;4930936;28;90073;-58
2022/06/14 08:35:13;;;;;;;65.80;50.45;;;22.10;53.60;;;;;;4927934;28;92602;-57
2022/06/14 08:38:06;;;;;;;65.07;50.67;;;22.20;53.20;;;;;;4937019;28;89338;-58
2022/06/14 08:40:55;;;;;;;67.72;50.75;;;22.20;53.30;;;;;;4928521;28;94987;-54
2022/06/14 08:43:42;;;;;;;66.82;50.67;;;22.20;53.10;;;;;;4928096;28;93411;-58
2022/06/14 08:46:21;;;;;;;64.03;50.75;;;22.20;52.80;;;;;;4928940;28;90434;-57
2022/06/14 08:49:24;;;;;;;67.05;50.60;;;22.20;52.90;;;;;;4928507;28;92690;-56
2022/06/14 08:52:14;;;;;;;65.72;50.58;;;22.20;52.80;;;;;;4933156;28;89836;-57
2022/06/14 08:54:51;;;;;;;64.60;50.75;;;22.30;52.80;;;;;;4925688;28;90380;-57
2022/06/14 08:57:55;;;;;;;64.63;50.42;;;22.30;52.40;;;;;;4932071;28;91579;-58
2022/06/14 09:00:35;;;;;;;63.45;50.38;;;22.40;52.50;;;;;;4934492;28;90367;-56
2022/06/14 09:03:38;;;;;;;63.03;50.27;;;22.30;52.70;;;;;;4934109;28;89850;-55
2022/06/14 09:06:24;;;;;;;64.47;50.35;;;22.30;52.70;;;;;;4903886;28;91378;-58
2022/06/14 09:09:08;;;;;;;65.50;50.25;;;22.40;52.40;;;;;;4922447;28;91130;-57
2022/06/14 09:11:54;;;;;;;63.60;50.45;;;22.40;52.30;;;;;;4936524;28;93592;-55
2022/06/14 09:14:45;;;;;;;65.38;50.30;;;22.40;52.30;;;;;;4931064;28;91583;-58
2022/06/14 09:17:29;;;;;;;63.50;50.27;;;22.40;52.30;;;;;;4936748;28;90982;-55
2022/06/14 09:20:22;;;;;;;62.53;50.35;;;22.40;52.10;;;;;;4929077;28;90280;-58
2022/06/14 09:23:06;;;;;;;67.10;50.55;;;22.30;52.20;;;;;;4933450;28;93425;-57
2022/06/14 09:25:53;;;;;;;65.85;50.38;;;22.30;52.10;;;;;;4926883;28;91140;-55
2022/06/14 09:28:24;;;;;;;64.97;50.65;;;22.30;52.20;;;;;;4929604;28;89878;-56
2022/06/14 09:30:52;;;;;;;;;;;22.30;52.00;;;;;;4925171;28;89951;-54
2022/06/14 09:33:43;;;;;;;63.42;50.22;;;22.40;51.90;;;;;;4936690;28;89353;-53
2022/06/14 09:36:19;;;;;;;64.05;50.03;;;22.40;52.00;;;;;;4932376;28;92470;-58
2022/06/14 09:39:39;;;;;;;63.78;50.53;;;22.40;51.70;;;;;;4920132;28;90430;-59
2022/06/14 09:42:28;;;;;;;64.78;50.42;;;22.40;51.70;;;;;;4892213;28;93498;-57
2022/06/14 09:45:06;;;;;;;67.70;50.10;;;22.40;51.90;;;;;;4924180;28;91244;-55
2022/06/14 09:48:11;;;;;;;63.03;50.25;;;22.40;51.70;;;;;;4935557;28;89778;-58
2022/06/14 09:51:03;;;;;;;63.83;50.35;;;22.40;51.70;;;;;;4902393;28;90738;-57
2022/06/14 09:53:58;;;;;;;63.58;50.25;;;22.50;51.10;;;;;;4936565;28;90351;-56
2022/06/14 09:56:33;;;;;;;63.58;50.33;;;22.50;51.10;;;;;;4929204;28;89837;-56
2022/06/14 09:59:24;;;;;;;63.97;50.20;;;22.50;51.30;;;;;;4930453;28;90997;-56
2022/06/14 10:01:49;;;;;;;64.15;50.33;;;22.50;51.10;;;;;;4927165;28;89382;-58
2022/06/14 10:05:01;;;;;;;64.30;50.17;;;22.50;51.00;;;;;;4931049;28;89939;-54
2022/06/14 10:07:36;;;;;;;63.90;50.50;;;22.50;50.80;;;;;;4875282;28;90197;-56
2022/06/14 10:10:29;;;;;;;65.43;50.22;;;22.50;50.80;;;;;;4931060;28;91122;-56
2022/06/14 10:13:32;;;;;;;63.92;50.53;;;22.50;50.70;;;;;;4930196;28;92401;-59
2022/06/14 10:16:16;;;;;;;64.05;50.15;;;22.50;50.50;;;;;;4922735;28;92758;-56
2022/06/14 10:19:12;;;;;;;63.67;50.33;;;22.60;50.30;;;;;;4920779;28;94099;-59
2022/06/14 10:21:57;;;;;;;65.40;50.40;;;22.60;50.10;;;;;;4926042;28;90283;-58
2022/06/14 10:24:37;;;;;;;65.47;50.45;;;22.60;50.00;;;;;;4924226;28;91499;-57
2022/06/14 10:30:19;;;;;;;63.15;50.30;;;22.60;49.90;;;;;;4911252;28;89950;-60
2022/06/14 10:33:24;;;;;;;64.80;50.22;;;22.60;50.00;;;;;;4934532;28;91617;-60
2022/06/14 10:36:05;;;;;;;64.35;50.50;;;22.70;50.40;;;;;;4928735;28;90571;-58
2022/06/14 10:39:02;;;;;;;66.28;50.67;;;22.70;50.60;;;;;;4927971;28;90736;-56
2022/06/14 10:42:06;;;;;;;64.15;50.38;;;22.70;50.10;;;;;;4925593;28;90716;-59
2022/06/14 10:44:43;;;;;;;63.30;50.25;;;22.70;50.20;;;;;;4923096;28;90919;-52
2022/06/14 10:47:22;;;;;;;64.53;50.30;;;22.80;50.00;;;;;;4933146;28;92482;-57
2022/06/14 10:49:53;;;;;;;63.67;50.47;;;22.80;49.90;;;;;;4925229;28;93161;-54
2022/06/14 10:52:34;;;;;;;62.95;50.45;;;22.70;49.90;;;;;;4922789;28;93392;-58
2022/06/14 10:55:27;;;;;;;63.93;50.70;;;22.80;49.90;;;;;;4915293;28;94020;-57
2022/06/14 10:58:15;;;;;;;64.30;50.53;;;22.80;49.70;;;;;;4927480;28;89903;-55
2022/06/14 11:00:54;;;;;;;63.42;50.58;;;22.70;49.90;;;;;;4922636;28;91481;-54
2022/06/14 11:03:32;;;;;;;65.80;50.42;;;22.70;49.80;;;;;;4923967;28;96089;-50
2022/06/14 11:06:35;;;;;;;65.72;50.45;;;22.80;49.90;;;;;;4920877;28;91088;-54
2022/06/14 11:09:26;;;;;;;64.47;50.50;;;22.80;50.20;;;;;;4923619;28;90928;-56
2022/06/14 11:12:12;;;;;;;65.97;50.95;;;22.80;50.00;;;;;;4922392;28;90003;-56
2022/06/14 11:14:47;;;;;;;66.18;50.95;;;22.80;49.70;;;;;;4923990;28;90016;-54
2022/06/14 11:17:34;;;;;;;65.38;51.00;;;22.80;49.50;;;;;;4929544;28;90023;-58
2022/06/14 11:20:13;;;;;;;64.97;51.05;;;22.80;49.30;;;;;;4920156;28;93830;-56
2022/06/14 11:23:09;;;;;;;64.05;50.53;;;22.70;49.10;;;;;;4927580;28;89663;-55
2022/06/14 11:25:55;;;;;;;64.75;50.85;;;22.80;49.10;;;;;;4917611;28;89434;-56
2022/06/14 11:28:30;;;;;;;65.40;50.95;;;22.80;48.80;;;;;;4924717;28;90813;-58
2022/06/14 11:31:22;;;;;;;64.60;50.92;;;22.80;48.80;;;;;;4933817;28;95704;-59
2022/06/14 11:34:06;;;;;;;65.75;50.85;;;22.80;48.70;;;;;;4933524;28;91389;-55
2022/06/14 11:36:35;;;;;;;66.40;50.85;;;22.80;48.70;;;;;;4926863;28;90366;-58
2022/06/14 11:39:27;;;;;;;66.88;50.72;;;22.80;48.70;;;;;;4927053;28;90379;-52
2022/06/14 11:41:53;;;;;;;66.82;51.13;;;22.80;48.70;;;;;;4922688;28;91656;-56
2022/06/14 11:44:24;;;;;;;65.75;50.80;;;22.80;48.60;;;;;;4933802;28;90072;-57
2022/06/14 11:46:59;;;;;;;;;;;22.80;48.40;;;;;;4923213;28;90300;-56
2022/06/14 11:49:37;;;;;;;64.40;50.60;;;22.80;48.40;;;;;;4926417;28;90809;-55
2022/06/14 11:52:09;;;;;;;64.93;51.00;;;22.90;48.40;;;;;;4925463;28;89991;-56
2022/06/14 11:55:00;;;;;;;65.18;50.95;;;22.90;48.40;;;;;;4936268;28;89772;-56
2022/06/14 11:57:26;;;;;;;65.88;50.83;;;22.90;48.50;;;;;;4930213;28;94202;-56
2022/06/14 12:00:13;;;;;;;65.43;51.05;;;22.90;48.40;;;;;;4932874;28;91601;-55
2022/06/14 12:02:57;;;;;;;63.88;50.72;;;22.90;48.40;;;;;;4935153;28;89856;-59
2022/06/14 12:05:40;;;;;;;67.95;51.13;;;22.90;48.20;;;;;;4922578;28;92367;-57
2022/06/14 12:08:11;;;;;;;65.95;51.13;;;22.90;48.30;;;;;;4931905;28;89451;-56
2022/06/14 12:10:55;;;;;;;;;;;23.00;48.20;;;;;;4924630;28;90472;-58
2022/06/14 12:13:51;;;;;;;64.78;51.00;;;23.00;48.20;;;;;;4937877;28;89996;-55
2022/06/14 12:16:42;;;;;;;65.25;50.85;;;23.00;48.20;;;;;;4927395;28;91682;-60
2022/06/14 12:19:11;;;;;;;64.82;50.90;;;23.10;48.20;;;;;;4931445;28;89350;-56
2022/06/14 12:21:52;;;;;;;64.05;51.00;;;23.10;48.10;;;;;;4928249;28;92420;-56
2022/06/14 12:26:34;;;;;;;64.33;50.93;;;23.10;48.20;;;;;;4932649;28;90638;-59
2022/06/14 12:27:11;;;;;;;64.05;50.80;;;23.10;48.20;;;;;;4932036;28;91069;-55
2022/06/14 12:29:41;;;;;;;66.15;51.00;;;23.20;48.20;;;;;;4924454;28;90179;-58
2022/06/14 12:32:16;;;;;;;65.15;50.67;;;23.20;48.30;;;;;;4928792;28;95306;-59
2022/06/14 12:34:57;;;;;;;64.18;50.88;;;23.20;48.30;;;;;;4927699;28;91181;-56
2022/06/14 12:37:32;;;;;;;65.20;51.10;;;23.20;48.40;;;;;;4922775;28;96454;-54
2022/06/14 12:40:04;;;;;;;64.43;50.85;;;23.10;48.40;;;;;;4921167;28;91225;-56
2022/06/14 12:42:39;;;;;;;65.18;50.85;;;23.10;48.40;;;;;;4929458;28;92662;-54
2022/06/14 12:45:11;;;;;;;66.13;50.92;;;23.10;48.30;;;;;;4929766;28;90292;-56
2022/06/14 12:48:02;;;;;;;64.22;50.92;;;23.20;48.40;;;;;;4926643;28;90021;-58
2022/06/14 12:50:35;;;;;;;68.18;51.08;;;23.20;48.50;;;;;;4929406;28;89920;-54
2022/06/14 12:53:28;;;;;;;65.25;50.83;;;23.20;48.40;;;;;;4932057;28;91024;-53
2022/06/14 12:55:59;;;;;;;64.88;50.78;;;23.20;48.40;;;;;;4924291;28;93348;-56
2022/06/14 12:58:48;;;;;;;;;;;23.20;48.40;;;;;;4919005;28;90745;-54
2022/06/14 13:01:17;;;;;;;65.35;50.65;;;23.20;48.30;;;;;;4923740;28;90423;-59
2022/06/14 13:03:50;;;;;;;66.03;50.65;;;23.20;48.40;;;;;;4927378;28;93036;-57
2022/06/14 13:06:27;;;;;;;66.57;51.08;;;23.20;48.50;;;;;;4927412;28;90106;-58
2022/06/14 13:09:23;;;;;;;63.67;50.65;;;23.30;48.50;;;;;;4934989;28;93567;-55
2022/06/14 13:12:00;;;;;;;67.40;51.03;;;23.30;48.50;;;;;;4928783;28;91315;-59
2022/06/14 13:14:58;;;;;;;65.95;50.65;;;23.30;48.70;;;;;;4932091;28;90210;-59
2022/06/14 13:17:54;;;;;;;64.30;50.95;;;23.20;48.80;;;;;;4927858;28;90074;-59
2022/06/14 13:20:30;;;;;;;67.32;51.03;;;23.30;48.80;;;;;;4929408;28;91088;-56
2022/06/14 13:23:07;;;;;;;65.80;50.95;;;23.30;48.70;;;;;;4928014;28;91150;-56
2022/06/14 13:26:30;;;;;;;66.07;50.95;;;23.30;48.60;;;;;;4896341;28;91110;-53
2022/06/14 13:29:01;;;;;;;67.40;50.92;;;23.20;48.80;;;;;;4855319;28;91235;-58
2022/06/14 13:31:38;;;;;;;66.88;51.03;;;23.20;49.10;;;;;;4860248;28;90301;-59
2022/06/14 13:34:34;;;;;;;65.30;50.90;;;23.20;49.40;;;;;;4907294;28;90698;-58
2022/06/14 13:37:38;;;;;;;67.28;50.70;;;23.30;49.20;;;;;;4915715;28;90517;-57
2022/06/14 13:40:16;;;;;;;67.35;50.90;;;23.20;49.10;;;;;;4923991;28;89723;-58
2022/06/14 13:42:51;;;;;;;65.93;50.67;;;23.30;49.10;;;;;;4920557;28;90048;-59
2022/06/14 13:45:29;;;;;;;66.25;50.97;;;23.20;49.40;;;;;;4917110;28;91081;-57